Time;durP1;ratioP1;P1;durP2;ratioP2;P2;SDS_P1;SDS_P2;PMS_P1;PMS_P2;Temp;Humidity;BMP_temperature;BMP_pressure;BME280_temperature;BME280_humidity;BME280_pressure;Samples;Min_cycle;Max_cycle;Signal;HPM_P1;HPM_P2
2021/03/10 00:02:06;;;;;;;33.83;23.75;;;;;;;7.84;67.79;100508.63;5045180;28;20053;-79
2021/03/10 00:04:42;;;;;;;36.53;25.95;;;;;;;7.87;67.65;100501.66;5047671;28;20053;-79
2021/03/10 00:07:16;;;;;;;36.25;25.05;;;;;;;7.89;67.95;100502.19;5043578;28;20059;-79
2021/03/10 00:10:08;;;;;;;35.08;24.63;;;;;;;7.87;67.49;100496.09;5045226;28;20049;-79
2021/03/10 00:12:45;;;;;;;34.85;24.38;;;;;;;7.84;67.36;100497.53;5040790;28;20060;-79
2021/03/10 00:15:26;;;;;;;33.22;24.15;;;;;;;7.86;67.94;100494.47;5025497;28;20058;-79
2021/03/10 00:18:12;;;;;;;34.45;23.48;;;;;;;7.86;67.04;100498.06;5025746;28;20495;-79
2021/03/10 00:21:12;;;;;;;34.65;23.02;;;;;;;7.86;67.72;100500.84;5025500;28;20058;-79
2021/03/10 00:23:55;;;;;;;34.25;23.45;;;;;;;7.86;68.14;100494.47;5030318;28;20061;-79
2021/03/10 00:26:31;;;;;;;37.08;25.02;;;;;;;7.85;67.36;100492.81;5043841;28;20057;-79
2021/03/10 00:29:12;;;;;;;33.53;25.13;;;;;;;7.84;67.43;100489.22;5045517;28;20050;-79
2021/03/10 00:31:58;;;;;;;34.45;23.98;;;;;;;7.86;68.02;100489.75;5043982;28;20068;-79
2021/03/10 00:34:59;;;;;;;33.67;24.15;;;;;;;7.78;67.44;100486.78;5044744;28;20064;-79
2021/03/10 00:37:44;;;;;;;32.15;23.55;;;;;;;7.72;67.66;100489.63;5044347;28;20072;-79
2021/03/10 00:40:24;;;;;;;34.08;24.40;;;;;;;7.66;67.70;100490.78;5045526;28;20045;-79
2021/03/10 00:43:05;;;;;;;35.67;24.83;;;;;;;7.62;68.56;100486.13;5045760;28;20057;-79
2021/03/10 00:45:44;;;;;;;36.70;25.90;;;;;;;7.59;68.15;100492.28;5046310;28;20080;-79
2021/03/10 00:48:27;;;;;;;34.85;24.42;;;;;;;7.56;68.71;100487.31;5044500;28;20033;-79
2021/03/10 00:51:05;;;;;;;35.30;25.88;;;;;;;7.52;68.57;100485.13;5045646;28;20049;-78
2021/03/10 00:53:42;;;;;;;37.40;25.38;;;;;;;7.49;68.55;100482.94;5045257;28;20060;-78
2021/03/10 00:56:18;;;;;;;38.00;25.35;;;;;;;7.50;68.05;100483.78;5047106;28;20057;-77
2021/03/10 00:59:05;;;;;;;41.00;27.33;;;;;;;7.44;68.76;100483.00;5029790;28;20053;-78
2021/03/10 01:01:40;;;;;;;38.97;25.05;;;;;;;7.46;68.74;100485.50;5047091;28;20049;-78
2021/03/10 01:04:26;;;;;;;35.83;24.70;;;;;;;7.43;68.93;100483.28;5047300;28;20059;-78
2021/03/10 01:07:09;;;;;;;38.63;25.58;;;;;;;7.48;69.02;100486.03;5047879;28;20041;-78
2021/03/10 01:09:44;;;;;;;35.60;25.33;;;;;;;7.53;68.98;100491.50;5050102;28;20050;-78
2021/03/10 01:12:23;;;;;;;36.92;25.17;;;;;;;7.58;68.96;100488.69;5049100;28;20094;-78
2021/03/10 01:15:06;;;;;;;38.70;27.02;;;;;;;7.64;68.25;100481.97;5047910;28;20060;-78
2021/03/10 01:17:45;;;;;;;39.58;27.13;;;;;;;7.67;67.74;100484.13;5047559;28;20062;-78
2021/03/10 01:20:21;;;;;;;38.38;26.40;;;;;;;7.64;68.43;100492.22;5048784;28;20083;-78
2021/03/10 01:23:02;;;;;;;35.13;24.73;;;;;;;7.67;67.84;100489.69;5046823;28;20059;-78
2021/03/10 01:25:37;;;;;;;36.85;26.23;;;;;;;7.59;68.81;100495.88;5046183;28;20057;-78
2021/03/10 01:28:15;;;;;;;37.17;25.77;;;;;;;7.66;68.21;100499.09;5046710;28;20064;-78
2021/03/10 01:30:56;;;;;;;34.15;23.67;;;;;;;7.71;68.21;100499.06;5047246;28;20056;-78
2021/03/10 01:36:32;;;;;;;37.70;25.20;;;;;;;7.77;68.19;100501.75;5047388;28;20057;-78
2021/03/10 01:39:08;;;;;;;36.15;25.98;;;;;;;7.80;68.36;100506.75;5045604;28;20061;-80
2021/03/10 01:41:42;;;;;;;34.17;24.60;;;;;;;7.81;68.26;100513.91;5044615;28;20045;-78
2021/03/10 01:44:19;;;;;;;34.55;24.00;;;;;;;7.83;68.03;100517.22;5047711;28;20060;-78
2021/03/10 01:46:55;;;;;;;35.67;23.77;;;;;;;7.86;67.81;100517.47;5048338;28;20056;-78
2021/03/10 01:49:33;;;;;;;33.97;24.08;;;;;;;7.92;67.60;100515.47;5041757;28;20045;-77
2021/03/10 01:52:05;;;;;;;33.88;24.75;;;;;;;7.94;67.02;100516.00;5027366;28;20057;-78
2021/03/10 01:54:52;;;;;;;34.65;24.67;;;;;;;7.97;67.05;100504.31;5026494;28;20080;-78
2021/03/10 01:57:23;;;;;;;35.10;23.83;;;;;;;7.98;66.86;100508.75;5027647;28;20062;-78
2021/03/10 01:59:56;;;;;;;36.42;25.15;;;;;;;7.96;67.08;100502.66;5024813;28;20058;-78
2021/03/10 02:02:37;;;;;;;34.05;23.70;;;;;;;7.94;67.25;100513.22;5024842;28;20065;-78
2021/03/10 02:05:13;;;;;;;33.03;24.45;;;;;;;7.91;66.81;100514.63;5027161;28;20058;-78
2021/03/10 02:08:05;;;;;;;33.88;24.23;;;;;;;7.93;66.85;100517.94;5035453;28;20061;-78
2021/03/10 02:10:54;;;;;;;37.88;24.88;;;;;;;7.92;66.57;100515.47;5044213;28;20064;-78
2021/03/10 02:13:44;;;;;;;37.15;26.15;;;;;;;7.91;66.90;100519.34;5045195;28;20058;-78
2021/03/10 02:16:29;;;;;;;35.53;25.23;;;;;;;7.98;66.70;100524.53;5041740;28;20067;-78
2021/03/10 02:19:17;;;;;;;38.17;26.95;;;;;;;7.86;67.14;100516.66;5043657;28;20049;-78
2021/03/10 02:21:52;;;;;;;37.50;26.30;;;;;;;7.86;66.70;100506.38;5044865;28;20050;-78
2021/03/10 02:24:45;;;;;;;36.47;25.33;;;;;;;7.90;67.08;100512.16;5035120;28;20054;-78
2021/03/10 02:27:46;;;;;;;40.35;27.77;;;;;;;7.81;67.12;100503.69;5024537;28;20053;-78
2021/03/10 02:30:17;;;;;;;41.10;28.48;;;;;;;7.73;67.63;100496.81;5022288;28;20050;-78
2021/03/10 02:32:51;;;;;;;39.33;28.00;;;;;;;7.72;67.11;100497.94;5019200;28;20061;-77
2021/03/10 02:35:19;;;;;;;45.28;29.95;;;;;;;7.65;67.21;100494.69;5019615;28;20108;-78
2021/03/10 02:37:49;;;;;;;51.50;30.55;;;;;;;7.62;67.44;100497.22;5033025;28;20053;-78
2021/03/10 02:40:19;;;;;;;50.05;31.63;;;;;;;7.57;67.03;100492.56;5040651;28;20049;-78
2021/03/10 02:42:49;;;;;;;47.58;31.25;;;;;;;7.49;67.89;100490.44;5041407;28;20053;-78
2021/03/10 02:45:17;;;;;;;56.10;34.75;;;;;;;7.44;67.56;100488.53;5025983;28;20057;-78
2021/03/10 02:47:44;;;;;;;55.38;34.28;;;;;;;7.38;67.83;100489.72;5020512;28;20058;-78
2021/03/10 02:50:12;;;;;;;57.40;34.90;;;;;;;7.36;67.91;100491.94;5019942;28;20054;-78
2021/03/10 02:52:40;;;;;;;62.92;36.53;;;;;;;7.35;67.60;100481.16;5020541;28;20061;-78
2021/03/10 02:55:09;;;;;;;63.05;35.83;;;;;;;7.27;68.01;100480.69;5034744;28;20045;-78
2021/03/10 02:57:36;;;;;;;65.00;34.85;;;;;;;7.23;67.26;100487.94;5039866;28;20050;-78
2021/03/10 03:00:06;;;;;;;75.25;39.17;;;;;;;7.18;67.43;100501.84;5040824;28;20049;-78
2021/03/10 03:02:34;;;;;;;74.03;39.67;;;;;;;7.09;67.51;100498.84;5040761;28;20049;-78
2021/03/10 03:05:03;;;;;;;74.00;38.75;;;;;;;7.02;68.27;100497.53;5032064;28;20291;-78
2021/03/10 03:07:30;;;;;;;69.20;37.72;;;;;;;7.00;68.10;100499.78;5019684;28;20057;-79
2021/03/10 03:09:59;;;;;;;66.63;36.30;;;;;;;7.02;67.86;100514.16;5020330;28;20061;-78
2021/03/10 03:12:29;;;;;;;73.82;37.50;;;;;;;7.01;68.28;100506.94;5019699;28;20069;-78
2021/03/10 03:14:59;;;;;;;64.03;35.70;;;;;;;7.02;67.61;100508.63;5030513;28;20060;-78
2021/03/10 03:17:26;;;;;;;61.53;34.50;;;;;;;7.03;67.97;100510.25;5038494;28;20378;-78
2021/03/10 03:19:54;;;;;;;59.63;34.00;;;;;;;7.03;68.07;100507.50;5038868;28;20069;-78
2021/03/10 03:22:22;;;;;;;59.72;32.75;;;;;;;6.99;68.03;100500.88;5037882;28;20491;-78
2021/03/10 03:24:50;;;;;;;61.65;35.72;;;;;;;6.97;67.92;100505.88;5025641;28;20061;-78
2021/03/10 03:27:25;;;;;;;60.25;32.30;;;;;;;6.96;67.27;100498.69;5019305;28;20050;-78
2021/03/10 03:29:55;;;;;;;59.45;33.00;;;;;;;6.91;67.89;100491.28;5018240;28;20062;-78
2021/03/10 03:32:24;;;;;;;60.65;33.75;;;;;;;6.87;67.65;100484.66;5018406;28;20072;-78
2021/03/10 03:34:51;;;;;;;60.35;35.65;;;;;;;6.77;67.45;100479.19;5019694;28;20164;-78
2021/03/10 03:37:19;;;;;;;57.42;33.72;;;;;;;6.64;68.41;100480.69;5029101;28;20395;-78
2021/03/10 03:39:46;;;;;;;56.50;33.05;;;;;;;6.60;69.18;100491.50;5039051;28;20487;-78
2021/03/10 03:42:13;;;;;;;67.28;37.30;;;;;;;6.56;68.36;100482.09;5039459;28;20060;-78
2021/03/10 03:44:41;;;;;;;64.05;35.80;;;;;;;6.46;68.53;100484.94;5038072;28;20057;-78
2021/03/10 03:47:08;;;;;;;67.30;36.50;;;;;;;6.38;68.56;100482.78;5039253;28;20053;-78
2021/03/10 03:49:36;;;;;;;68.13;36.50;;;;;;;6.33;69.04;100480.88;5038584;28;20049;-78
2021/03/10 03:52:03;;;;;;;68.93;37.17;;;;;;;6.28;69.37;100481.75;5037848;28;20060;-78
2021/03/10 03:54:31;;;;;;;64.70;36.72;;;;;;;6.25;69.30;100481.47;5037156;28;20048;-78
2021/03/10 03:56:58;;;;;;;74.90;38.53;;;;;;;6.22;69.63;100479.28;5037436;28;20057;-78
2021/03/10 03:59:24;;;;;;;72.05;36.08;;;;;;;6.18;69.84;100476.25;5038158;28;20060;-78
2021/03/10 04:01:51;;;;;;;72.05;37.53;;;;;;;6.17;69.89;100477.34;5038997;28;20056;-78
2021/03/10 04:04:18;;;;;;;70.85;37.92;;;;;;;6.17;70.29;100482.06;5037964;28;20045;-78
2021/03/10 04:06:46;;;;;;;75.63;38.03;;;;;;;6.17;69.90;100487.59;5022000;28;20054;-78
2021/03/10 04:09:13;;;;;;;70.70;37.20;;;;;;;6.11;70.48;100481.28;5039382;28;20049;-78
2021/03/10 04:11:43;;;;;;;73.18;38.45;;;;;;;6.12;70.00;100479.34;5039054;28;20045;-78
2021/03/10 04:14:10;;;;;;;68.90;37.33;;;;;;;6.14;70.20;100483.47;5035129;28;20049;-78
2021/03/10 04:16:37;;;;;;;70.53;37.85;;;;;;;6.14;70.19;100493.72;5019264;28;20507;-78
2021/03/10 04:19:04;;;;;;;73.03;38.78;;;;;;;6.17;69.82;100493.13;5020652;28;20096;-78
2021/03/10 04:21:31;;;;;;;75.78;38.63;;;;;;;6.17;70.37;100493.13;5020023;28;20507;-78
2021/03/10 04:23:58;;;;;;;70.70;38.28;;;;;;;6.12;70.09;100490.41;5024573;28;20045;-78
2021/03/10 04:26:25;;;;;;;73.20;37.78;;;;;;;6.16;70.16;100491.50;5041176;28;20060;-78
2021/03/10 04:28:53;;;;;;;73.15;35.95;;;;;;;6.19;69.76;100496.44;5040478;28;20344;-78
2021/03/10 04:31:20;;;;;;;67.63;35.40;;;;;;;6.19;69.41;100490.91;5041141;28;20053;-78
2021/03/10 04:33:47;;;;;;;74.55;37.78;;;;;;;6.09;69.51;100491.81;5042219;28;20050;-78
2021/03/10 04:36:14;;;;;;;78.28;37.78;;;;;;;6.02;69.58;100499.56;5042742;28;20056;-79
2021/03/10 04:38:41;;;;;;;72.50;35.58;;;;;;;5.97;69.20;100502.38;5045232;28;20061;-79
2021/03/10 04:41:08;;;;;;;72.32;37.50;;;;;;;5.91;69.60;100498.75;5046021;28;20050;-79
2021/03/10 04:43:35;;;;;;;75.55;36.08;;;;;;;5.80;69.63;100497.16;5045399;28;20060;-78
2021/03/10 04:46:03;;;;;;;77.45;37.55;;;;;;;5.73;69.86;100493.84;5045884;28;20052;-78
2021/03/10 04:48:29;;;;;;;78.50;39.40;;;;;;;5.62;69.98;100499.38;5045204;28;20053;-78
2021/03/10 04:50:56;;;;;;;87.95;40.13;;;;;;;5.55;69.95;100504.41;5044652;28;20057;-79
2021/03/10 04:53:26;;;;;;;85.65;40.80;;;;;;;5.44;70.00;100503.59;5031658;28;20061;-79
2021/03/10 04:55:53;;;;;;;87.47;40.35;;;;;;;5.29;70.71;100512.75;5024435;28;20054;-78
2021/03/10 04:58:19;;;;;;;84.70;40.90;;;;;;;5.28;70.36;100508.31;5042155;28;20376;-78
2021/03/10 05:00:46;;;;;;;87.75;39.97;;;;;;;5.17;70.43;100503.09;5044029;28;20057;-78
2021/03/10 05:03:14;;;;;;;90.78;40.20;;;;;;;5.12;70.90;100506.66;5042964;28;20066;-78
2021/03/10 05:05:41;;;;;;;89.63;41.60;;;;;;;5.09;70.88;100507.22;5042773;28;20053;-78
2021/03/10 05:08:08;;;;;;;88.03;40.22;;;;;;;5.03;71.53;100498.09;5028069;28;20072;-78
2021/03/10 05:10:35;;;;;;;92.03;39.28;;;;;;;5.00;71.19;100506.13;5027254;28;20049;-78
2021/03/10 05:13:02;;;;;;;88.95;39.97;;;;;;;4.97;71.38;100504.72;5023089;28;20425;-78
2021/03/10 05:15:29;;;;;;;90.07;39.70;;;;;;;4.96;71.66;100496.75;5023706;28;20061;-78
2021/03/10 05:17:56;;;;;;;77.93;37.38;;;;;;;4.90;72.33;100497.84;5024681;28;20057;-78
2021/03/10 05:20:23;;;;;;;81.97;40.60;;;;;;;4.93;72.02;100509.16;5042490;28;20422;-78
2021/03/10 05:22:50;;;;;;;75.57;38.97;;;;;;;4.92;71.99;100506.69;5039933;28;20064;-78
2021/03/10 05:25:17;;;;;;;74.60;36.70;;;;;;;4.89;71.56;100502.53;5026167;28;20058;-77
2021/03/10 05:27:46;;;;;;;73.13;37.08;;;;;;;4.83;71.33;100507.22;5021292;28;20057;-78
2021/03/10 05:30:16;;;;;;;75.28;37.80;;;;;;;4.83;70.57;100504.47;5004366;28;20529;-78
2021/03/10 05:32:43;;;;;;;70.10;35.28;;;;;;;4.80;71.13;100505.00;5021318;28;20054;-78
2021/03/10 05:35:10;;;;;;;73.30;33.97;;;;;;;4.77;71.09;100505.56;5020439;28;20501;-78
2021/03/10 05:37:41;;;;;;;66.47;35.08;;;;;;;4.72;70.96;100500.03;5031610;28;20053;-78
2021/03/10 05:40:09;;;;;;;66.63;32.40;;;;;;;4.70;71.42;100501.41;5039630;28;20060;-78
2021/03/10 05:42:40;;;;;;;68.47;33.55;;;;;;;4.66;71.19;100499.22;5034941;28;20053;-78
2021/03/10 05:45:09;;;;;;;63.88;32.17;;;;;;;4.64;71.09;100495.06;5022739;28;20056;-78
2021/03/10 05:47:36;;;;;;;61.47;31.15;;;;;;;4.59;70.98;100503.34;5023276;28;20054;-79
2021/03/10 05:50:04;;;;;;;59.25;31.25;;;;;;;4.60;71.01;100496.72;5022909;28;20394;-79
2021/03/10 05:52:35;;;;;;;60.72;30.15;;;;;;;4.58;71.27;100498.94;5023374;28;20430;-79
2021/03/10 05:55:06;;;;;;;66.75;32.75;;;;;;;4.47;71.38;100501.69;5024943;28;20472;-79
2021/03/10 05:57:33;;;;;;;59.33;31.00;;;;;;;4.48;71.73;100503.31;5024857;28;20050;-79
2021/03/10 06:00:00;;;;;;;61.33;31.65;;;;;;;4.43;72.38;100500.56;5024675;28;20050;-79
2021/03/10 06:02:27;;;;;;;61.45;32.42;;;;;;;4.41;71.83;100500.00;5029613;28;20061;-79
2021/03/10 06:04:54;;;;;;;57.75;30.90;;;;;;;4.43;72.59;100499.72;5039917;28;20061;-79
2021/03/10 06:07:23;;;;;;;56.40;31.77;;;;;;;4.47;71.83;100504.44;5022037;28;20057;-79
2021/03/10 06:10:00;;;;;;;56.13;30.25;;;;;;;4.50;71.85;100505.00;5031905;28;20053;-79
2021/03/10 06:12:43;;;;;;;58.35;32.05;;;;;;;4.50;71.54;100510.50;5040421;28;20060;-79
2021/03/10 06:15:13;;;;;;;57.88;29.95;;;;;;;4.56;71.40;100512.19;5039690;28;20064;-79
2021/03/10 06:17:44;;;;;;;48.58;27.95;;;;;;;4.58;71.55;100499.75;5042656;28;20483;-78
2021/03/10 06:20:23;;;;;;;53.35;28.17;;;;;;;4.63;70.64;100498.94;5026671;28;20045;-78
2021/03/10 06:22:51;;;;;;;46.45;27.70;;;;;;;4.65;71.09;100502.25;5029377;28;20054;-79
2021/03/10 06:25:18;;;;;;;52.47;29.13;;;;;;;4.69;71.17;100508.88;5046424;28;20045;-79
2021/03/10 06:27:54;;;;;;;50.63;28.65;;;;;;;4.73;71.36;100500.88;5044901;28;20053;-79
2021/03/10 06:30:34;;;;;;;46.08;27.10;;;;;;;4.75;71.09;100510.53;5037628;28;20339;-78
2021/03/10 06:33:02;;;;;;;49.33;28.17;;;;;;;4.83;71.21;100504.47;5042547;28;20068;-79
2021/03/10 06:35:30;;;;;;;44.45;26.33;;;;;;;4.92;70.89;100507.50;5037227;28;20479;-79
2021/03/10 06:38:07;;;;;;;42.50;26.23;;;;;;;4.96;70.75;100518.84;5035690;28;20060;-78
2021/03/10 06:40:34;;;;;;;43.35;26.83;;;;;;;5.05;70.84;100500.59;5042107;28;20050;-79
2021/03/10 06:43:02;;;;;;;41.92;26.20;;;;;;;5.11;70.58;100516.06;5041150;28;20483;-78
2021/03/10 06:45:33;;;;;;;43.05;26.15;;;;;;;5.17;70.05;100514.94;5035017;28;20053;-78
2021/03/10 06:48:00;;;;;;;48.17;26.67;;;;;;;5.25;69.96;100508.88;5020849;28;20403;-78
2021/03/10 06:50:34;;;;;;;40.00;25.52;;;;;;;5.36;69.68;100501.41;5021282;28;20049;-78
2021/03/10 06:53:01;;;;;;;37.33;25.08;;;;;;;5.43;69.26;100503.88;5021516;28;20053;-77
2021/03/10 06:55:42;;;;;;;36.97;24.45;;;;;;;5.53;69.06;100511.31;5043599;28;20049;-79
2021/03/10 06:58:13;;;;;;;37.08;23.63;;;;;;;5.60;68.64;100514.59;5049125;28;20049;-79
2021/03/10 07:00:40;;;;;;;36.58;24.02;;;;;;;5.65;68.95;100504.38;5047091;28;20053;-78
2021/03/10 07:03:06;;;;;;;35.53;24.35;;;;;;;5.77;67.89;100522.56;5045674;28;20140;-79
2021/03/10 07:05:33;;;;;;;34.72;21.23;;;;;;;5.90;67.66;100519.22;5037612;28;20052;-79
2021/03/10 07:08:00;;;;;;;35.25;22.38;;;;;;;5.94;67.42;100520.28;5022407;28;20427;-78
2021/03/10 07:10:28;;;;;;;31.45;21.33;;;;;;;6.04;67.09;100523.03;5039192;28;20060;-77
2021/03/10 07:13:00;;;;;;;34.03;22.95;;;;;;;6.02;67.30;100519.72;5019548;28;20050;-78
2021/03/10 07:15:28;;;;;;;33.65;22.17;;;;;;;6.12;66.81;100507.00;5016443;28;20053;-79
2021/03/10 07:17:55;;;;;;;32.70;21.85;;;;;;;6.21;66.85;100511.63;5017593;28;20061;-76
2021/03/10 07:20:22;;;;;;;31.63;21.38;;;;;;;6.38;66.31;100515.97;5016243;28;20145;-77
2021/03/10 07:22:56;;;;;;;30.48;21.00;;;;;;;6.36;66.42;100513.47;5014968;28;20049;-77
2021/03/10 07:25:28;;;;;;;30.30;20.67;;;;;;;6.57;65.50;100510.59;5027409;28;20056;-76
2021/03/10 07:27:59;;;;;;;30.48;21.05;;;;;;;6.68;65.38;100512.22;5040814;28;20053;-79
2021/03/10 07:30:38;;;;;;;30.83;21.13;;;;;;;6.80;64.24;100515.41;5020752;28;20061;-79
2021/03/10 07:33:09;;;;;;;32.85;21.83;;;;;;;6.99;64.60;100514.72;5022215;28;20053;-79
2021/03/10 07:35:51;;;;;;;30.58;21.58;;;;;;;7.15;64.39;100523.75;5008018;28;20042;-79
2021/03/10 07:38:19;;;;;;;35.78;23.05;;;;;;;7.32;64.43;100529.69;5023072;28;20057;-79
2021/03/10 07:40:59;;;;;;;31.02;21.42;;;;;;;7.53;63.58;100522.00;5021589;28;20057;-79
2021/03/10 07:43:37;;;;;;;29.27;21.42;;;;;;;7.68;63.35;100523.78;5013628;28;20057;-80
2021/03/10 07:46:17;;;;;;;31.80;24.45;;;;;;;7.79;62.28;100525.31;5011697;28;20073;-79
2021/03/10 07:48:44;;;;;;;27.85;19.58;;;;;;;7.85;61.87;100521.38;5014687;28;20057;-79
2021/03/10 07:51:23;;;;;;;32.40;20.83;;;;;;;7.93;61.52;100523.47;5015736;28;20069;-78
2021/03/10 07:53:50;;;;;;;30.08;21.85;;;;;;;7.87;61.66;100533.00;5012452;28;20060;-78
2021/03/10 07:56:26;;;;;;;27.00;19.50;;;;;;;7.97;61.89;100528.44;5013027;28;20392;-79
2021/03/10 07:58:53;;;;;;;24.77;18.85;;;;;;;8.03;60.86;100522.53;5012101;28;20066;-78
2021/03/10 08:01:21;;;;;;;26.67;20.63;;;;;;;8.13;60.66;100527.97;5005915;28;20056;-79
2021/03/10 08:03:48;;;;;;;29.45;20.48;;;;;;;8.19;61.00;100534.28;5007751;28;20419;-78
2021/03/10 08:06:14;;;;;;;26.75;19.52;;;;;;;8.26;60.84;100529.19;5007686;28;20408;-77
2021/03/10 08:08:43;;;;;;;27.27;20.90;;;;;;;8.32;60.88;100519.66;5006730;28;20436;-78
2021/03/10 08:11:13;;;;;;;27.73;20.45;;;;;;;8.36;59.86;100522.69;5006970;28;20491;-75
2021/03/10 08:13:41;;;;;;;26.42;19.27;;;;;;;8.40;60.77;100529.28;5003828;28;20052;-77
2021/03/10 08:16:10;;;;;;;27.77;20.33;;;;;;;8.47;60.43;100524.22;5012136;28;20062;-77
2021/03/10 08:18:45;;;;;;;26.92;20.77;;;;;;;8.52;60.12;100529.72;5009186;28;20053;-77
2021/03/10 08:21:15;;;;;;;26.27;18.80;;;;;;;8.62;59.80;100530.69;5006346;28;20058;-77
2021/03/10 08:23:42;;;;;;;25.27;19.55;;;;;;;8.66;59.97;100528.94;4993639;28;20034;-77
2021/03/10 08:26:09;;;;;;;23.52;17.95;;;;;;;8.79;59.59;100532.94;4993900;28;20062;-77
2021/03/10 08:28:38;;;;;;;23.40;17.85;;;;;;;8.87;58.13;100523.91;5011109;28;20380;-78
2021/03/10 08:31:06;;;;;;;28.85;20.02;;;;;;;8.68;58.87;100521.16;5006462;28;20058;-77
2021/03/10 08:33:46;;;;;;;27.05;17.90;;;;;;;8.68;58.84;100518.38;5011874;28;20443;-77
2021/03/10 08:36:13;;;;;;;23.05;16.13;;;;;;;8.70;58.68;100518.91;5009549;28;20050;-78
2021/03/10 08:38:40;;;;;;;24.55;17.92;;;;;;;8.62;58.78;100519.56;5012998;28;20476;-77
2021/03/10 08:41:09;;;;;;;25.83;17.42;;;;;;;8.50;59.07;100511.69;5012691;28;20415;-78
2021/03/10 08:43:36;;;;;;;24.00;18.42;;;;;;;8.54;60.03;100509.94;5014533;28;20167;-78
2021/03/10 08:46:03;;;;;;;24.13;17.35;;;;;;;8.57;59.37;100508.53;5012278;28;20049;-77
2021/03/10 08:48:34;;;;;;;24.67;17.17;;;;;;;8.40;60.31;100501.53;5004617;28;20065;-77
2021/03/10 08:51:05;;;;;;;24.13;16.90;;;;;;;8.28;61.20;100509.47;5005600;28;20062;-76
2021/03/10 08:53:32;;;;;;;24.27;17.20;;;;;;;8.36;59.74;100503.25;5012514;28;20049;-77
2021/03/10 08:56:07;;;;;;;24.45;17.65;;;;;;;8.43;60.14;100509.28;5014946;28;20054;-78
2021/03/10 08:58:34;;;;;;;25.45;17.55;;;;;;;8.47;60.15;100504.78;5011018;28;20053;-78
2021/03/10 09:01:01;;;;;;;22.85;17.48;;;;;;;8.49;60.03;100496.97;5013820;28;20415;-78
2021/03/10 09:03:28;;;;;;;26.70;17.98;;;;;;;8.48;60.28;100495.34;5014563;28;20054;-76
2021/03/10 09:06:00;;;;;;;25.92;18.50;;;;;;;8.57;59.66;100498.25;5015300;28;20065;-78
2021/03/10 09:08:28;;;;;;;24.95;17.55;;;;;;;8.60;60.09;100491.28;4996232;28;20057;-77
2021/03/10 09:10:57;;;;;;;23.38;17.75;;;;;;;8.70;59.91;100488.34;5015501;28;20061;-78
2021/03/10 09:13:25;;;;;;;26.08;18.08;;;;;;;8.76;59.69;100492.69;5015776;28;20046;-77
2021/03/10 09:15:52;;;;;;;27.40;19.08;;;;;;;8.91;59.15;100474.97;5003798;28;20066;-77
2021/03/10 09:18:19;;;;;;;26.98;18.08;;;;;;;8.96;59.26;100479.59;5015563;28;20364;-76
2021/03/10 09:20:48;;;;;;;25.48;18.75;;;;;;;9.00;58.95;100480.66;5017030;28;20057;-78
2021/03/10 09:23:25;;;;;;;25.77;18.10;;;;;;;9.11;58.66;100482.09;5018087;28;20054;-77
2021/03/10 09:25:57;;;;;;;27.13;18.00;;;;;;;9.18;59.13;100476.19;5016938;28;20058;-77
2021/03/10 09:28:34;;;;;;;28.25;19.00;;;;;;;9.26;58.82;100481.88;5024426;28;20053;-78
2021/03/10 09:31:00;;;;;;;26.10;18.35;;;;;;;9.38;58.45;100483.31;5039626;28;20049;-77
2021/03/10 09:33:28;;;;;;;28.38;18.85;;;;;;;9.47;58.23;100479.53;5039538;28;20057;-78
2021/03/10 09:35:58;;;;;;;29.17;19.65;;;;;;;9.47;58.04;100478.69;5040653;28;20054;-77
2021/03/10 09:38:27;;;;;;;28.83;18.52;;;;;;;9.34;58.22;100470.03;5034438;28;20049;-76
2021/03/10 09:40:57;;;;;;;30.73;20.38;;;;;;;9.54;58.30;100470.78;5035640;28;20057;-77
2021/03/10 09:43:25;;;;;;;33.22;19.38;;;;;;;9.72;56.69;100471.81;5034854;28;20053;-77
2021/03/10 09:45:56;;;;;;;30.52;20.58;;;;;;;9.81;56.61;100466.38;5032976;28;20045;-77
2021/03/10 09:48:29;;;;;;;33.83;20.55;;;;;;;9.95;56.41;100467.16;5034648;28;20053;-77
2021/03/10 09:51:03;;;;;;;31.67;21.17;;;;;;;9.86;56.84;100460.69;5034331;28;20551;-77
2021/03/10 09:53:30;;;;;;;35.65;22.08;;;;;;;10.09;55.56;100454.06;5022162;28;20053;-77
2021/03/10 09:56:05;;;;;;;32.47;21.63;;;;;;;10.19;55.49;100444.66;5014805;28;20060;-77
2021/03/10 09:58:32;;;;;;;34.92;22.58;;;;;;;10.25;55.91;100445.38;5015400;28;20053;-77
2021/03/10 10:01:00;;;;;;;36.15;22.48;;;;;;;10.35;55.77;100439.59;5014464;28;20050;-77
2021/03/10 10:03:28;;;;;;;34.95;23.17;;;;;;;10.43;55.42;100438.84;5034933;28;20053;-77
2021/03/10 10:06:05;;;;;;;33.53;22.50;;;;;;;10.45;55.08;100439.38;5031709;28;20056;-77
2021/03/10 10:08:34;;;;;;;34.25;21.90;;;;;;;10.36;54.45;100432.91;5020022;28;20054;-78
2021/03/10 10:11:01;;;;;;;37.20;23.27;;;;;;;10.27;54.64;100449.50;5021026;28;20050;-77
2021/03/10 10:13:32;;;;;;;34.97;23.63;;;;;;;10.25;54.91;100439.81;5037949;28;20152;-77
2021/03/10 10:15:59;;;;;;;38.35;24.48;;;;;;;10.42;55.05;100439.19;5033938;28;20059;-77
2021/03/10 10:18:26;;;;;;;37.83;20.85;;;;;;;10.93;53.17;100438.75;5032760;28;20065;-77
2021/03/10 10:20:53;;;;;;;40.50;20.35;;;;;;;11.69;50.88;100426.66;5033838;28;20057;-77
2021/03/10 10:23:20;;;;;;;39.83;25.52;;;;;;;12.41;49.45;100418.97;5022969;28;20054;-76
2021/03/10 10:25:46;;;;;;;33.90;24.15;;;;;;;12.51;48.79;100417.78;5013263;28;20447;-77
2021/03/10 10:28:13;;;;;;;35.67;24.52;;;;;;;13.31;47.15;100406.16;5031552;28;20060;-76
2021/03/10 10:30:41;;;;;;;36.55;25.63;;;;;;;13.80;45.72;100417.81;5033324;28;20057;-77
2021/03/10 10:33:08;;;;;;;32.55;21.73;;;;;;;14.02;44.91;100413.88;5035964;28;20052;-77
2021/03/10 10:35:35;;;;;;;33.70;24.25;;;;;;;14.65;43.35;100436.34;5017675;28;20050;-77
2021/03/10 10:38:01;;;;;;;33.90;22.30;;;;;;;15.50;41.01;100412.53;5030314;28;20068;-78
2021/03/10 10:40:28;;;;;;;32.72;22.25;;;;;;;15.75;40.34;100406.97;5035224;28;20053;-77
2021/03/10 10:42:55;;;;;;;33.50;24.45;;;;;;;16.49;38.94;100415.28;5037517;28;20060;-77
2021/03/10 10:45:22;;;;;;;34.63;24.90;;;;;;;16.72;38.41;100402.31;5032597;28;20526;-77
2021/03/10 10:47:50;;;;;;;33.30;23.23;;;;;;;16.75;38.23;100397.97;5029743;28;20510;-77
2021/03/10 10:50:16;;;;;;;32.83;24.33;;;;;;;16.59;38.35;100403.53;5013990;28;20412;-77
2021/03/10 10:52:44;;;;;;;35.20;24.88;;;;;;;16.47;38.53;100409.22;5027122;28;20060;-77
2021/03/10 10:55:13;;;;;;;35.97;24.55;;;;;;;16.63;38.48;100415.69;5031356;28;20060;-77
2021/03/10 10:57:40;;;;;;;31.70;22.65;;;;;;;17.13;37.14;100393.81;5029765;28;20152;-76
2021/03/10 11:00:09;;;;;;;32.67;23.70;;;;;;;16.84;37.97;100401.47;5033678;28;20053;-76
2021/03/10 11:02:36;;;;;;;30.73;24.27;;;;;;;16.78;38.40;100402.88;5032314;28;20076;-76
2021/03/10 11:05:05;;;;;;;30.13;22.27;;;;;;;16.57;38.00;100403.91;5020354;28;20488;-76
2021/03/10 11:07:32;;;;;;;31.60;23.40;;;;;;;16.39;38.93;100414.59;5025564;28;20060;-76
2021/03/10 11:09:59;;;;;;;30.83;22.73;;;;;;;15.50;40.85;100403.31;5021911;28;20060;-76
2021/03/10 11:12:26;;;;;;;27.58;18.58;;;;;;;15.46;40.64;100403.19;5013719;28;20056;-81
2021/03/10 11:14:53;;;;;;;28.13;20.58;;;;;;;15.27;41.33;100398.13;5036804;28;20049;-75
2021/03/10 11:17:20;;;;;;;31.42;22.83;;;;;;;14.77;42.50;100405.56;5031211;28;20060;-75
2021/03/10 11:19:47;;;;;;;27.95;21.95;;;;;;;14.55;43.24;100387.16;5033305;28;20061;-75
2021/03/10 11:22:14;;;;;;;31.33;23.30;;;;;;;14.49;43.12;100398.88;5032468;28;20060;-76
2021/03/10 11:24:41;;;;;;;29.42;22.45;;;;;;;14.18;43.89;100395.31;5032352;28;20481;-75
2021/03/10 11:27:09;;;;;;;30.63;22.65;;;;;;;14.13;44.63;100394.69;5032022;28;20479;-75
2021/03/10 11:29:36;;;;;;;28.15;21.42;;;;;;;14.28;44.59;100390.47;5032598;28;20057;-75
2021/03/10 11:32:06;;;;;;;28.95;21.55;;;;;;;14.54;43.38;100390.25;5032307;28;20050;-75
2021/03/10 11:34:33;;;;;;;28.10;21.25;;;;;;;14.45;43.75;100389.50;5031970;28;20056;-74
2021/03/10 11:37:02;;;;;;;27.45;21.08;;;;;;;14.14;44.00;100388.75;5031406;28;20049;-76
2021/03/10 11:39:32;;;;;;;27.63;21.15;;;;;;;13.99;44.01;100392.97;5032369;28;20419;-77